createdAt,value
2023-02-02T07:05:24.020Z,98189.38
2023-02-02T07:07:27.010Z,98194.47
2023-02-02T07:09:29.729Z,98194.00
2023-02-02T07:11:39.767Z,98197.28
2023-02-02T07:13:49.450Z,98196.84
2023-02-02T07:15:52.337Z,98195.97
2023-02-02T07:17:56.265Z,98196.91
2023-02-02T07:20:00.097Z,98192.84
2023-02-02T07:22:04.367Z,98201.16
2023-02-02T07:24:08.328Z,98203.19
2023-02-02T07:26:12.645Z,98208.03
2023-02-02T07:28:15.801Z,98204.13
2023-02-02T07:30:18.897Z,98209.91
2023-02-02T07:32:21.653Z,98201.59
2023-02-02T07:34:24.670Z,98202.25
2023-02-02T07:36:27.777Z,98208.22
2023-02-02T07:38:31.911Z,98198.50
2023-02-02T07:40:34.850Z,98209.44
2023-02-02T07:42:37.606Z,98206.81
2023-02-02T07:44:40.451Z,98216.06
2023-02-02T07:46:43.527Z,98218.03
2023-02-02T07:48:46.499Z,98230.09
2023-02-02T07:50:49.254Z,98221.03
2023-02-02T07:52:52.665Z,98235.75
2023-02-02T07:55:12.587Z,98240.06
2023-02-02T07:57:18.185Z,98234.94
2023-02-02T07:59:21.085Z,98237.44
2023-02-02T08:01:27.122Z,98230.03
2023-02-02T08:03:30.064Z,98238.78
2023-02-02T08:05:34.984Z,98243.22
2023-02-02T08:07:38.006Z,98235.63
2023-02-02T08:09:40.811Z,98241.31
2023-02-02T08:11:45.940Z,98235.22
2023-02-02T08:13:50.580Z,98238.09
2023-02-02T08:15:53.489Z,98233.34
2023-02-02T08:17:56.331Z,98220.16
2023-02-02T08:19:59.864Z,98225.13
2023-02-02T08:22:02.915Z,98222.88
2023-02-02T08:24:06.172Z,98217.31
2023-02-02T08:26:11.331Z,98220.75
2023-02-02T08:28:15.510Z,98224.78
2023-02-02T08:30:18.854Z,98224.47
2023-02-02T08:32:21.908Z,98232.91
2023-02-02T08:34:24.717Z,98224.84
2023-02-02T08:36:29.317Z,98229.97
2023-02-02T08:38:32.178Z,98233.16
2023-02-02T08:40:34.991Z,98240.91
2023-02-02T08:42:37.954Z,98245.22
2023-02-02T08:45:59.461Z,98239.63
2023-02-02T08:47:04.785Z,98247.38
2023-02-02T08:49:08.686Z,98259.75
2023-02-02T08:51:14.350Z,98254.31
2023-02-02T08:53:17.275Z,98259.47
2023-02-02T08:55:21.040Z,98258.19
2023-02-02T08:57:23.977Z,98252.91
2023-02-02T08:59:26.967Z,98261.50
2023-02-02T09:01:32.795Z,98266.94
2023-02-02T09:03:39.292Z,98272.22
2023-02-02T09:05:42.015Z,98270.56
2023-02-02T09:07:47.326Z,98278.78
2023-02-02T09:09:50.960Z,98281.56
2023-02-02T09:11:54.785Z,98279.78
2023-02-02T09:13:59.636Z,98273.50
2023-02-02T09:16:02.926Z,98262.94
2023-02-02T09:18:07.549Z,98260.97
2023-02-02T09:20:11.658Z,98265.13
2023-02-02T09:22:14.541Z,98268.44
2023-02-02T09:24:17.548Z,98262.84
2023-02-02T09:26:26.532Z,98264.22
2023-02-02T09:28:29.504Z,98266.56
2023-02-02T09:30:32.309Z,98276.13
2023-02-02T09:32:35.329Z,98266.25
2023-02-02T09:34:40.825Z,98275.81
2023-02-02T09:36:45.631Z,98276.53
2023-02-02T09:38:49.569Z,98267.63
2023-02-02T09:40:52.412Z,98269.28
2023-02-02T09:43:07.962Z,98269.28
2023-02-02T09:45:24.297Z,98274.41
2023-02-02T09:47:44.109Z,98270.63
2023-02-02T09:49:58.343Z,98273.09
2023-02-02T09:52:09.739Z,98266.72
2023-02-02T09:54:19.070Z,98262.25
2023-02-02T09:56:25.640Z,98273.78
2023-02-02T09:58:32.226Z,98273.94
2023-02-02T10:00:39.874Z,98271.00
2023-02-02T10:02:45.797Z,98267.66
2023-02-02T10:04:53.941Z,98276.41
2023-02-02T10:07:00.309Z,98269.63
2023-02-02T10:09:16.861Z,98274.56
2023-02-02T10:11:30.918Z,98280.97
2023-02-02T10:13:37.896Z,98284.56
2023-02-02T10:15:45.299Z,98279.59
2023-02-02T10:17:55.361Z,98280.75
2023-02-02T10:20:07.703Z,98285.03
2023-02-02T10:22:15.410Z,98288.50
2023-02-02T10:24:21.316Z,98285.03
2023-02-02T10:26:35.269Z,98288.66
2023-02-02T10:28:45.269Z,98304.88
2023-02-02T10:30:55.162Z,98301.94
2023-02-02T10:33:06.263Z,98300.81
2023-02-02T10:35:35.606Z,98304.66
2023-02-02T10:37:44.202Z,98306.03
2023-02-02T10:40:06.731Z,98304.88
2023-02-02T10:42:19.347Z,98311.97
2023-02-02T10:44:34.704Z,98311.66
2023-02-02T10:46:40.865Z,98310.69
2023-02-02T10:48:47.225Z,98310.84
2023-02-02T10:50:55.213Z,98311.00
2023-02-02T10:53:02.939Z,98315.28
2023-02-02T10:55:15.925Z,98304.56
2023-02-02T10:57:31.563Z,98309.19
2023-02-02T10:59:40.121Z,98302.91
2023-02-02T11:01:43.694Z,98300.94
2023-02-02T11:03:47.836Z,98301.78
2023-02-02T11:06:09.853Z,98307.38
2023-02-02T11:08:16.211Z,98314.63
2023-02-02T11:10:19.232Z,98317.25
2023-02-02T11:12:26.829Z,98313.94
2023-02-02T11:14:45.306Z,98311.00
2023-02-02T11:17:02.492Z,98302.09
2023-02-02T11:19:23.991Z,98303.75
2023-02-02T11:21:30.245Z,98309.84
2023-02-02T11:23:33.504Z,98311.66
2023-02-02T11:25:39.219Z,98308.59
2023-02-02T11:27:44.882Z,98305.47
2023-02-02T11:29:50.756Z,98299.72
2023-02-02T11:31:53.744Z,98306.91
2023-02-02T11:34:11.403Z,98316.03
2023-02-02T11:36:20.968Z,98310.47
2023-02-02T11:38:26.278Z,98309.31
2023-02-02T11:40:33.219Z,98315.28
2023-02-02T11:42:35.930Z,98309.00
2023-02-02T11:44:40.878Z,98303.44
2023-02-02T11:46:44.736Z,98304.09
2023-02-02T11:48:53.039Z,98307.41
2023-02-02T11:50:57.908Z,98307.25
2023-02-02T11:53:01.024Z,98310.06
2023-02-02T11:55:15.646Z,98302.44
2023-02-02T11:57:21.522Z,98298.97
2023-02-02T11:59:33.846Z,98298.97
2023-02-02T12:01:39.583Z,98293.69
2023-02-02T12:03:42.517Z,98283.94
2023-02-02T12:05:49.523Z,98284.59
2023-02-02T12:07:52.249Z,98283.13
2023-02-02T12:10:00.167Z,98269.75
2023-02-02T12:12:12.498Z,98268.75
2023-02-02T12:14:32.800Z,98264.97
2023-02-02T12:16:53.318Z,98273.56
2023-02-02T12:19:23.784Z,98270.41
2023-02-02T12:21:40.321Z,98265.28
2023-02-02T12:23:58.317Z,98258.50
2023-02-02T12:26:30.189Z,98251.22
2023-02-02T12:28:52.337Z,98258.19
2023-02-02T12:31:04.318Z,98259.16
2023-02-02T12:33:24.427Z,98259.31
2023-02-02T12:35:39.221Z,98247.91
2023-02-02T12:37:54.060Z,98259.00
2023-02-02T12:40:18.304Z,98252.72
2023-02-02T12:42:39.836Z,98253.56
2023-02-02T12:44:56.480Z,98253.56
2023-02-02T12:47:09.980Z,98246.13
2023-02-02T12:49:26.204Z,98246.84
2023-02-02T12:51:49.056Z,98249.59
2023-02-02T12:54:34.947Z,98250.47
2023-02-02T12:56:45.292Z,98256.41
2023-02-02T12:58:57.658Z,98252.94
2023-02-02T13:01:27.799Z,98260.72
2023-02-02T13:03:45.453Z,98260.72
2023-02-02T13:06:05.550Z,98267.97
2023-02-02T13:08:11.853Z,98258.91
2023-02-02T13:10:21.606Z,98262.88
2023-02-02T13:12:25.859Z,98266.19
2023-02-02T13:14:33.759Z,98267.56
2023-02-02T13:16:41.797Z,98266.09
2023-02-02T13:18:52.858Z,98264.81
2023-02-02T13:20:59.484Z,98260.69
2023-02-02T13:23:09.473Z,98260.06
2023-02-02T13:25:20.549Z,98254.28
2023-02-02T13:27:25.003Z,98248.22
2023-02-02T13:29:39.033Z,98250.38
2023-02-02T13:32:00.470Z,98258.19
2023-02-02T13:34:13.410Z,98260.16
2023-02-02T13:36:25.856Z,98259.53
2023-02-02T13:38:31.381Z,98248.44
2023-02-02T13:40:40.060Z,98252.78
2023-02-02T13:42:48.915Z,98258.56
2023-02-02T13:44:57.197Z,98261.72
2023-02-02T13:47:07.530Z,98255.44
2023-02-02T13:49:14.586Z,98263.19
2023-02-02T13:51:40.609Z,98268.19
2023-02-02T13:53:57.363Z,98269.19
2023-02-02T13:56:17.729Z,98274.63
2023-02-02T13:58:48.098Z,98269.19
2023-02-02T14:00:54.017Z,98259.25
2023-02-02T14:03:03.842Z,98268.84
2023-02-02T14:05:09.909Z,98270.50
2023-02-02T14:07:12.704Z,98272.34
2023-02-02T14:09:19.735Z,98263.06
2023-02-02T14:11:26.956Z,98258.59
2023-02-02T14:13:53.198Z,98264.56
2023-02-02T14:15:58.073Z,98267.56
2023-02-02T14:18:02.318Z,98273.84
2023-02-02T14:20:06.573Z,98273.03
2023-02-02T14:22:21.581Z,98273.84
2023-02-02T14:24:43.417Z,98286.09
2023-02-02T14:26:48.527Z,98279.63
2023-02-02T14:28:51.858Z,98286.94
2023-02-02T14:31:36.578Z,98300.66
2023-02-02T14:33:48.307Z,98293.53
2023-02-02T14:36:05.215Z,98294.03
2023-02-02T14:38:14.445Z,98293.03
2023-02-02T14:40:30.934Z,98301.81
2023-02-02T14:43:08.827Z,98300.66
2023-02-02T14:45:27.089Z,98302.31
2023-02-02T14:47:47.923Z,98301.50
2023-02-02T14:49:57.389Z,98299.66
2023-02-02T14:52:03.018Z,98289.06
2023-02-02T14:54:08.637Z,98296.03
2023-02-02T14:56:14.411Z,98303.66
2023-02-02T14:58:24.198Z,98293.06
2023-02-02T15:00:31.175Z,98303.16
2023-02-02T15:02:37.201Z,98303.63
2023-02-02T15:04:40.355Z,98312.56
2023-02-02T15:06:45.173Z,98305.28
2023-02-02T15:09:08.132Z,98305.97
2023-02-02T15:11:28.960Z,98300.31
2023-02-02T15:13:37.670Z,98305.75
2023-02-02T15:15:43.633Z,98303.28
2023-02-02T15:17:56.159Z,98296.50
2023-02-02T15:20:09.456Z,98299.59
2023-02-02T15:22:26.822Z,98300.09
2023-02-02T15:24:33.145Z,98309.19
2023-02-02T15:26:42.848Z,98296.25
2023-02-02T15:28:52.289Z,98297.41
2023-02-02T15:31:01.035Z,98297.59
2023-02-02T15:33:09.162Z,98298.56
2023-02-02T15:35:19.734Z,98302.22
2023-02-02T15:37:27.748Z,98301.38
2023-02-02T15:39:33.939Z,98308.50
2023-02-02T15:41:42.888Z,98313.94
2023-02-02T15:43:47.118Z,98310.59
2023-02-02T15:45:53.989Z,98318.38
2023-02-02T15:47:58.840Z,98313.41
2023-02-02T15:50:02.611Z,98318.72
2023-02-02T15:52:14.303Z,98315.41
2023-02-02T15:54:27.032Z,98318.88
2023-02-02T15:56:31.938Z,98313.75
2023-02-02T15:58:39.228Z,98313.75
2023-02-02T16:00:42.174Z,98310.09
2023-02-02T16:02:46.960Z,98314.56
2023-02-02T16:04:50.080Z,98321.03
2023-02-02T16:06:53.019Z,98327.13
2023-02-02T16:08:55.986Z,98334.25
2023-02-02T16:11:10.050Z,98328.28
2023-02-02T16:13:24.907Z,98339.84
2023-02-02T16:15:29.946Z,98345.28
2023-02-02T16:17:35.408Z,98347.94
2023-02-02T16:19:39.111Z,98349.75
2023-02-02T16:21:47.963Z,98355.38
2023-02-02T16:23:52.380Z,98358.03
2023-02-02T16:25:58.462Z,98358.19
2023-02-02T16:28:03.455Z,98354.03
2023-02-02T16:30:08.889Z,98368.25
2023-02-02T16:32:26.876Z,98365.91
2023-02-02T16:34:47.132Z,98368.53
2023-02-02T16:37:05.508Z,98366.16
2023-02-02T16:39:17.232Z,98365.34
2023-02-02T16:41:28.706Z,98380.38
2023-02-02T16:43:32.873Z,98380.69
2023-02-02T16:45:48.473Z,98378.38
2023-02-02T16:47:54.958Z,98373.69
2023-02-02T16:50:20.616Z,98382.59
2023-02-02T16:52:23.634Z,98380.28
2023-02-02T16:54:26.315Z,98374.31
2023-02-02T16:56:34.070Z,98377.94
2023-02-02T16:58:45.283Z,98377.41
2023-02-02T17:01:12.262Z,98381.50
2023-02-02T17:03:19.186Z,98386.78
2023-02-02T17:05:25.250Z,98390.72
2023-02-02T17:07:29.424Z,98395.63
2023-02-02T17:09:36.224Z,98406.22
2023-02-02T17:11:39.047Z,98411.09
2023-02-02T17:13:43.270Z,98413.06
2023-02-02T17:15:53.256Z,98410.28
2023-02-02T17:17:56.475Z,98407.50
2023-02-02T17:19:59.230Z,98403.06
2023-02-02T17:22:05.539Z,98403.88
2023-02-02T17:24:10.461Z,98405.81
2023-02-02T17:26:14.025Z,98405.81
2023-02-02T17:28:20.056Z,98404.16
2023-02-02T17:30:24.583Z,98410.44
2023-02-02T17:32:27.324Z,98413.06
2023-02-02T17:34:30.968Z,98414.75
2023-02-02T17:36:33.627Z,98411.09
2023-02-02T17:38:36.361Z,98415.44
2023-02-02T17:40:39.428Z,98413.63
2023-02-02T17:42:44.036Z,98398.75
2023-02-02T17:44:46.929Z,98402.22
2023-02-02T17:46:51.087Z,98411.09
2023-02-02T17:48:53.787Z,98406.97
2023-02-02T17:50:56.564Z,98400.84
2023-02-02T17:52:59.981Z,98397.53
2023-02-02T17:55:02.970Z,98396.38
2023-02-02T17:57:05.744Z,98399.03
2023-02-02T17:59:08.450Z,98398.03
2023-02-02T18:01:12.560Z,98393.75
2023-02-02T18:03:22.191Z,98392.25
2023-02-02T18:05:25.508Z,98399.34
2023-02-02T18:07:28.540Z,98398.78
2023-02-02T18:09:34.038Z,98394.50
2023-02-02T18:11:36.786Z,98402.31
2023-02-02T18:13:39.569Z,98396.16
2023-02-02T18:15:42.417Z,98394.50
2023-02-02T18:17:47.174Z,98390.88
2023-02-02T18:19:52.957Z,98388.50
2023-02-02T18:21:55.624Z,98381.41
2023-02-02T18:23:58.417Z,98382.22
2023-02-02T18:26:09.650Z,98382.69
2023-02-02T18:28:15.189Z,98386.19
2023-02-02T18:30:19.969Z,98392.28
2023-02-02T18:32:22.906Z,98386.19
2023-02-02T18:34:25.637Z,98392.13
2023-02-02T18:36:29.739Z,98385.88
2023-02-02T18:38:32.465Z,98381.72
2023-02-02T18:40:35.239Z,98388.00
2023-02-02T18:42:38.036Z,98390.13
2023-02-02T18:44:42.854Z,98385.09
2023-02-02T18:46:45.623Z,98387.06
2023-02-02T18:48:48.330Z,98386.25
2023-02-02T18:50:51.006Z,98395.16
2023-02-02T18:52:56.635Z,98380.44
2023-02-02T18:54:59.500Z,98391.16
2023-02-02T18:57:02.325Z,98385.34
2023-02-02T18:59:06.978Z,98389.41
2023-02-02T19:01:10.635Z,98394.47
2023-02-02T19:03:13.846Z,98400.34
2023-02-02T19:05:34.151Z,98397.31
2023-02-02T19:07:54.546Z,98388.44
2023-02-02T19:09:59.327Z,98397.72
2023-02-02T19:12:02.759Z,98392.59
2023-02-02T19:14:12.268Z,98393.41
2023-02-02T19:16:21.970Z,98395.06
2023-02-02T19:18:25.830Z,98395.91
2023-02-02T19:20:30.371Z,98393.94
2023-02-02T19:22:33.562Z,98394.47
2023-02-02T19:24:39.749Z,98397.25
2023-02-02T19:26:47.056Z,98399.06
2023-02-02T19:28:50.052Z,98398.38
2023-02-02T19:30:54.484Z,98401.34
2023-02-02T19:32:57.233Z,98407.59
2023-02-02T19:35:01.463Z,98398.84
2023-02-02T19:37:19.646Z,98402.31
2023-02-02T19:39:28.209Z,98404.97
2023-02-02T19:41:31.380Z,98404.97
2023-02-02T19:43:36.476Z,98407.59
2023-02-02T19:45:41.207Z,98403.41
2023-02-02T19:47:45.353Z,98406.78
2023-02-02T19:49:48.075Z,98408.44
2023-02-02T19:51:54.077Z,98412.88
2023-02-02T19:54:01.592Z,98411.34
2023-02-02T19:56:22.033Z,98412.88
2023-02-02T19:58:28.150Z,98412.06
2023-02-02T20:00:33.555Z,98424.13
2023-02-02T20:02:44.767Z,98419.81
2023-02-02T20:04:48.161Z,98417.03
2023-02-02T20:06:59.080Z,98423.13
2023-02-02T20:09:10.951Z,98420.34
2023-02-02T20:11:31.826Z,98415.88
2023-02-02T20:13:39.754Z,98423.81
2023-02-02T20:15:44.242Z,98420.66
2023-02-02T20:17:47.087Z,98414.84
2023-02-02T20:19:49.831Z,98418.44
2023-02-02T20:21:53.903Z,98416.78
2023-02-02T20:23:56.586Z,98416.94
2023-02-02T20:25:59.619Z,98412.63
2023-02-02T20:28:09.442Z,98409.31
2023-02-02T20:30:24.997Z,98401.53
2023-02-02T20:32:38.505Z,98415.41
2023-02-02T20:34:44.437Z,98409.16
2023-02-02T20:36:48.133Z,98406.00
2023-02-02T20:38:50.852Z,98406.00
2023-02-02T20:40:53.905Z,98408.78
2023-02-02T20:42:58.171Z,98412.41
2023-02-02T20:45:00.928Z,98411.53
2023-02-02T20:47:04.835Z,98402.69
2023-02-02T20:49:08.864Z,98403.50
2023-02-02T20:51:11.874Z,98403.50
2023-02-02T20:53:16.401Z,98406.25
2023-02-02T20:55:19.146Z,98401.44
2023-02-02T20:57:21.871Z,98410.19
2023-02-02T20:59:25.317Z,98407.56
2023-02-02T21:01:28.657Z,98410.88
2023-02-02T21:03:31.360Z,98414.34
2023-02-02T21:05:38.880Z,98411.03
2023-02-02T21:07:41.699Z,98416.97
2023-02-02T21:09:44.436Z,98414.34
2023-02-02T21:11:47.853Z,98408.06
2023-02-02T21:13:50.813Z,98405.59
2023-02-02T21:15:53.681Z,98416.00
2023-02-02T21:17:56.431Z,98414.34
2023-02-02T21:19:59.247Z,98416.31
2023-02-02T21:22:03.442Z,98411.03
2023-02-02T21:24:07.393Z,98415.47
2023-02-02T21:26:10.165Z,98416.59
2023-02-02T21:28:15.345Z,98422.03
2023-02-02T21:30:18.626Z,98415.94
2023-02-02T21:32:21.289Z,98417.88
2023-02-02T21:34:24.009Z,98421.63
2023-02-02T21:36:33.562Z,98419.13
2023-02-02T21:38:37.668Z,98415.81
2023-02-02T21:40:41.314Z,98411.38
2023-02-02T21:42:49.334Z,98419.13
2023-02-02T21:44:56.175Z,98420.78
2023-02-02T21:46:59.194Z,98421.94
2023-02-02T21:49:02.553Z,98426.38
